sensor_id;sensor_type;location;lat;lon;timestamp;pressure;altitude;pressure_sealevel;temperature;humidity
26531;BME280;14201;43.188;24.160;2022-11-15T00:01:47;100461.13;;;9.28;97.29
26531;BME280;14201;43.188;24.160;2022-11-15T00:04:12;100455.66;;;9.23;97.73
26531;BME280;14201;43.188;24.160;2022-11-15T00:06:38;100448.44;;;9.33;96.53
26531;BME280;14201;43.188;24.160;2022-11-15T00:09:03;100434.72;;;9.07;96.69
26531;BME280;14201;43.188;24.160;2022-11-15T00:11:29;100445.75;;;9.03;97.99
26531;BME280;14201;43.188;24.160;2022-11-15T00:13:55;100453.78;;;9.21;97.44
26531;BME280;14201;43.188;24.160;2022-11-15T00:16:21;100447.56;;;9.04;98.12
26531;BME280;14201;43.188;24.160;2022-11-15T00:18:47;100436.53;;;9.08;98.65
26531;BME280;14201;43.188;24.160;2022-11-15T00:21:13;100433.13;;;9.09;98.43
26531;BME280;14201;43.188;24.160;2022-11-15T00:23:39;100440.41;;;9.15;97.96
26531;BME280;14201;43.188;24.160;2022-11-15T00:26:06;100435.56;;;9.06;98.40
26531;BME280;14201;43.188;24.160;2022-11-15T00:28:31;100428.53;;;8.90;99.67
26531;BME280;14201;43.188;24.160;2022-11-15T00:31:06;100432.66;;;9.01;99.18
26531;BME280;14201;43.188;24.160;2022-11-15T00:33:32;100427.91;;;8.94;99.94
26531;BME280;14201;43.188;24.160;2022-11-15T00:36:06;100424.47;;;8.95;100.00
26531;BME280;14201;43.188;24.160;2022-11-15T00:38:32;100425.50;;;8.84;100.00
26531;BME280;14201;43.188;24.160;2022-11-15T00:40:59;100427.47;;;8.73;100.00
26531;BME280;14201;43.188;24.160;2022-11-15T00:43:25;100428.31;;;8.87;100.00
26531;BME280;14201;43.188;24.160;2022-11-15T00:45:50;100423.03;;;8.85;100.00
26531;BME280;14201;43.188;24.160;2022-11-15T00:48:16;100432.31;;;9.10;99.96
26531;BME280;14201;43.188;24.160;2022-11-15T00:50:41;100425.63;;;9.14;99.72
26531;BME280;14201;43.188;24.160;2022-11-15T00:53:07;100425.00;;;9.18;99.84
26531;BME280;14201;43.188;24.160;2022-11-15T00:55:33;100424.38;;;9.22;99.88
26531;BME280;14201;43.188;24.160;2022-11-15T00:57:58;100413.91;;;9.35;99.29
26531;BME280;14201;43.188;24.160;2022-11-15T01:00:24;100410.94;;;9.44;97.14
26531;BME280;14201;43.188;24.160;2022-11-15T01:02:50;100411.84;;;9.30;97.57
26531;BME280;14201;43.188;24.160;2022-11-15T01:05:15;100401.19;;;9.25;97.24
26531;BME280;14201;43.188;24.160;2022-11-15T01:07:41;100410.03;;;9.14;98.12
26531;BME280;14201;43.188;24.160;2022-11-15T01:10:07;100400.19;;;9.23;98.15
26531;BME280;14201;43.188;24.160;2022-11-15T01:12:32;100377.22;;;9.16;98.24
26531;BME280;14201;43.188;24.160;2022-11-15T01:14:58;100397.13;;;9.30;97.96
26531;BME280;14201;43.188;24.160;2022-11-15T01:17:24;100395.00;;;9.38;97.80
26531;BME280;14201;43.188;24.160;2022-11-15T01:19:50;100401.81;;;9.51;96.82
26531;BME280;14201;43.188;24.160;2022-11-15T01:22:16;100393.47;;;9.56;96.18
26531;BME280;14201;43.188;24.160;2022-11-15T01:24:42;100395.88;;;9.53;95.38
26531;BME280;14201;43.188;24.160;2022-11-15T01:27:08;100399.22;;;9.51;96.42
26531;BME280;14201;43.188;24.160;2022-11-15T01:29:33;100398.59;;;9.55;96.74
26531;BME280;14201;43.188;24.160;2022-11-15T01:31:59;100380.03;;;9.49;96.97
26531;BME280;14201;43.188;24.160;2022-11-15T01:34:24;100391.31;;;9.64;95.98
26531;BME280;14201;43.188;24.160;2022-11-15T01:36:50;100383.06;;;9.71;95.59
26531;BME280;14201;43.188;24.160;2022-11-15T01:39:16;100385.09;;;9.77;95.01
26531;BME280;14201;43.188;24.160;2022-11-15T01:41:42;100391.94;;;9.75;94.57
26531;BME280;14201;43.188;24.160;2022-11-15T01:47:03;100377.69;;;9.68;94.52
26531;BME280;14201;43.188;24.160;2022-11-15T01:49:32;100381.09;;;9.67;95.01
26531;BME280;14201;43.188;24.160;2022-11-15T01:52:00;100375.81;;;9.65;95.12
26531;BME280;14201;43.188;24.160;2022-11-15T01:54:27;100387.56;;;9.74;94.64
26531;BME280;14201;43.188;24.160;2022-11-15T01:57:00;100389.88;;;9.69;94.53
26531;BME280;14201;43.188;24.160;2022-11-15T01:59:27;100384.41;;;9.64;95.13
26531;BME280;14201;43.188;24.160;2022-11-15T02:01:53;100381.63;;;9.61;95.38
26531;BME280;14201;43.188;24.160;2022-11-15T02:04:26;100369.88;;;9.53;95.35
26531;BME280;14201;43.188;24.160;2022-11-15T02:06:53;100383.53;;;9.64;94.68
26531;BME280;14201;43.188;24.160;2022-11-15T02:09:18;100376.50;;;9.63;94.67
26531;BME280;14201;43.188;24.160;2022-11-15T02:11:46;100375.38;;;9.43;96.18
26531;BME280;14201;43.188;24.160;2022-11-15T02:14:14;100373.44;;;9.11;97.22
26531;BME280;14201;43.188;24.160;2022-11-15T02:22:14;100372.13;;;9.17;98.62
26531;BME280;14201;43.188;24.160;2022-11-15T02:30:52;100369.53;;;9.32;96.89
26531;BME280;14201;43.188;24.160;2022-11-15T02:34:05;100362.00;;;9.37;96.91
26531;BME280;14201;43.188;24.160;2022-11-15T02:42:12;100373.88;;;8.89;100.00
26531;BME280;14201;43.188;24.160;2022-11-15T02:45:03;100361.13;;;8.78;100.00
26531;BME280;14201;43.188;24.160;2022-11-15T02:47:34;100362.47;;;8.58;100.00
26531;BME280;14201;43.188;24.160;2022-11-15T02:50:08;100368.13;;;8.51;100.00
26531;BME280;14201;43.188;24.160;2022-11-15T02:52:35;100361.13;;;8.50;100.00
26531;BME280;14201;43.188;24.160;2022-11-15T02:55:01;100356.13;;;8.40;100.00
26531;BME280;14201;43.188;24.160;2022-11-15T02:57:45;100360.50;;;8.41;100.00
26531;BME280;14201;43.188;24.160;2022-11-15T03:00:20;100367.81;;;8.33;100.00
26531;BME280;14201;43.188;24.160;2022-11-15T03:06:19;100357.63;;;8.78;100.00
26531;BME280;14201;43.188;24.160;2022-11-15T03:11:18;100362.13;;;8.95;100.00
26531;BME280;14201;43.188;24.160;2022-11-15T03:13:52;100361.97;;;8.92;100.00
26531;BME280;14201;43.188;24.160;2022-11-15T03:18:54;100351.13;;;8.99;100.00
26531;BME280;14201;43.188;24.160;2022-11-15T03:21:21;100344.50;;;9.04;100.00
26531;BME280;14201;43.188;24.160;2022-11-15T03:23:49;100337.81;;;9.23;97.96
26531;BME280;14201;43.188;24.160;2022-11-15T03:26:17;100346.41;;;9.22;98.06
26531;BME280;14201;43.188;24.160;2022-11-15T03:28:58;100334.38;;;9.24;97.51
26531;BME280;14201;43.188;24.160;2022-11-15T03:31:29;100338.31;;;9.32;97.10
26531;BME280;14201;43.188;24.160;2022-11-15T03:34:24;100332.63;;;9.23;96.99
26531;BME280;14201;43.188;24.160;2022-11-15T03:36:52;100325.25;;;9.16;97.08
26531;BME280;14201;43.188;24.160;2022-11-15T03:39:18;100328.47;;;9.12;98.55
26531;BME280;14201;43.188;24.160;2022-11-15T03:44:41;100303.34;;;8.67;100.00
26531;BME280;14201;43.188;24.160;2022-11-15T03:47:20;100301.03;;;8.87;100.00
26531;BME280;14201;43.188;24.160;2022-11-15T03:49:59;100314.16;;;9.03;100.00
26531;BME280;14201;43.188;24.160;2022-11-15T03:52:31;100311.72;;;9.06;99.56
26531;BME280;14201;43.188;24.160;2022-11-15T03:55:00;100311.06;;;9.11;99.17
26531;BME280;14201;43.188;24.160;2022-11-15T03:57:26;100312.34;;;9.17;98.72
26531;BME280;14201;43.188;24.160;2022-11-15T03:59:51;100310.38;;;9.28;97.81
26531;BME280;14201;43.188;24.160;2022-11-15T04:02:20;100303.84;;;9.35;96.44
26531;BME280;14201;43.188;24.160;2022-11-15T04:04:45;100304.28;;;9.27;96.74
26531;BME280;14201;43.188;24.160;2022-11-15T04:07:11;100301.47;;;9.24;96.26
26531;BME280;14201;43.188;24.160;2022-11-15T04:09:37;100293.44;;;9.20;96.88
26531;BME280;14201;43.188;24.160;2022-11-15T04:12:21;100301.69;;;9.27;96.40
26531;BME280;14201;43.188;24.160;2022-11-15T04:15:17;100303.09;;;9.37;96.66
26531;BME280;14201;43.188;24.160;2022-11-15T04:17:44;100300.50;;;9.37;95.39
26531;BME280;14201;43.188;24.160;2022-11-15T04:20:14;100303.44;;;9.43;95.07
26531;BME280;14201;43.188;24.160;2022-11-15T04:23:00;100298.78;;;9.53;93.84
26531;BME280;14201;43.188;24.160;2022-11-15T04:25:45;100292.59;;;9.51;92.27
26531;BME280;14201;43.188;24.160;2022-11-15T04:28:12;100285.88;;;9.39;92.54
26531;BME280;14201;43.188;24.160;2022-11-15T04:30:38;100292.59;;;9.36;93.16
26531;BME280;14201;43.188;24.160;2022-11-15T04:33:04;100277.91;;;9.36;93.16
26531;BME280;14201;43.188;24.160;2022-11-15T04:35:30;100287.94;;;9.45;93.78
26531;BME280;14201;43.188;24.160;2022-11-15T04:37:56;100284.63;;;9.48;94.05
26531;BME280;14201;43.188;24.160;2022-11-15T04:40:22;100283.63;;;9.45;94.25
26531;BME280;14201;43.188;24.160;2022-11-15T04:42:48;100283.28;;;9.54;93.87
26531;BME280;14201;43.188;24.160;2022-11-15T04:45:14;100282.53;;;9.57;93.49
26531;BME280;14201;43.188;24.160;2022-11-15T04:47:39;100289.06;;;9.65;93.23
26531;BME280;14201;43.188;24.160;2022-11-15T04:50:06;100289.84;;;9.79;91.93
26531;BME280;14201;43.188;24.160;2022-11-15T04:52:31;100277.66;;;9.78;91.80
26531;BME280;14201;43.188;24.160;2022-11-15T04:54:57;100284.84;;;9.67;92.29
26531;BME280;14201;43.188;24.160;2022-11-15T04:57:23;100291.41;;;9.60;93.41
26531;BME280;14201;43.188;24.160;2022-11-15T04:59:48;100280.91;;;9.59;93.55
26531;BME280;14201;43.188;24.160;2022-11-15T05:02:14;100289.88;;;9.64;93.57
26531;BME280;14201;43.188;24.160;2022-11-15T05:04:39;100288.38;;;9.68;93.05
26531;BME280;14201;43.188;24.160;2022-11-15T05:07:05;100285.66;;;9.66;93.43
26531;BME280;14201;43.188;24.160;2022-11-15T05:09:31;100283.41;;;9.72;92.88
26531;BME280;14201;43.188;24.160;2022-11-15T05:11:56;100282.22;;;9.82;91.78
26531;BME280;14201;43.188;24.160;2022-11-15T05:14:22;100281.75;;;9.89;91.02
26531;BME280;14201;43.188;24.160;2022-11-15T05:16:48;100277.25;;;9.86;91.43
26531;BME280;14201;43.188;24.160;2022-11-15T05:19:14;100277.47;;;9.75;91.66
26531;BME280;14201;43.188;24.160;2022-11-15T05:21:40;100273.53;;;9.81;91.60
26531;BME280;14201;43.188;24.160;2022-11-15T05:24:06;100280.34;;;9.79;91.92
26531;BME280;14201;43.188;24.160;2022-11-15T05:26:32;100285.22;;;9.73;92.70
26531;BME280;14201;43.188;24.160;2022-11-15T05:28:58;100281.44;;;9.68;93.03
26531;BME280;14201;43.188;24.160;2022-11-15T05:31:25;100285.22;;;9.73;93.21
26531;BME280;14201;43.188;24.160;2022-11-15T05:33:52;100290.97;;;9.68;94.26
26531;BME280;14201;43.188;24.160;2022-11-15T05:36:38;100287.38;;;9.65;94.42
26531;BME280;14201;43.188;24.160;2022-11-15T05:39:05;100290.22;;;9.70;93.96
26531;BME280;14201;43.188;24.160;2022-11-15T05:41:38;100293.69;;;9.85;93.04
26531;BME280;14201;43.188;24.160;2022-11-15T05:44:07;100286.34;;;9.78;92.27
26531;BME280;14201;43.188;24.160;2022-11-15T05:46:35;100291.31;;;9.74;92.32
26531;BME280;14201;43.188;24.160;2022-11-15T05:49:01;100286.19;;;9.75;91.74
26531;BME280;14201;43.188;24.160;2022-11-15T05:51:28;100291.47;;;9.77;91.98
26531;BME280;14201;43.188;24.160;2022-11-15T05:53:56;100295.97;;;9.79;91.87
26531;BME280;14201;43.188;24.160;2022-11-15T05:56:24;100287.00;;;9.74;91.72
26531;BME280;14201;43.188;24.160;2022-11-15T05:58:52;100277.56;;;9.76;91.26
26531;BME280;14201;43.188;24.160;2022-11-15T06:01:18;100290.41;;;9.73;92.03
26531;BME280;14201;43.188;24.160;2022-11-15T06:03:44;100279.91;;;9.72;91.82
26531;BME280;14201;43.188;24.160;2022-11-15T06:06:09;100291.66;;;9.65;92.42
26531;BME280;14201;43.188;24.160;2022-11-15T06:08:35;100287.25;;;9.33;93.86
26531;BME280;14201;43.188;24.160;2022-11-15T06:11:07;100287.72;;;8.96;96.22
26531;BME280;14201;43.188;24.160;2022-11-15T06:13:33;100290.19;;;8.79;97.85
26531;BME280;14201;43.188;24.160;2022-11-15T06:15:59;100291.72;;;8.91;98.27
26531;BME280;14201;43.188;24.160;2022-11-15T06:18:25;100294.84;;;8.85;98.15
26531;BME280;14201;43.188;24.160;2022-11-15T06:20:50;100298.44;;;8.87;98.62
26531;BME280;14201;43.188;24.160;2022-11-15T06:23:16;100298.53;;;8.89;98.94
26531;BME280;14201;43.188;24.160;2022-11-15T06:25:42;100289.59;;;8.98;99.28
26531;BME280;14201;43.188;24.160;2022-11-15T06:28:08;100289.47;;;8.97;98.94
26531;BME280;14201;43.188;24.160;2022-11-15T06:30:33;100286.25;;;9.01;99.07
26531;BME280;14201;43.188;24.160;2022-11-15T06:33:03;100281.34;;;9.05;98.49
26531;BME280;14201;43.188;24.160;2022-11-15T06:35:30;100295.03;;;9.03;98.57
26531;BME280;14201;43.188;24.160;2022-11-15T06:38:05;100284.19;;;8.95;98.69
26531;BME280;14201;43.188;24.160;2022-11-15T06:40:36;100287.78;;;8.97;98.41
26531;BME280;14201;43.188;24.160;2022-11-15T06:43:03;100289.75;;;9.01;98.45
26531;BME280;14201;43.188;24.160;2022-11-15T06:45:29;100287.53;;;9.07;98.62
26531;BME280;14201;43.188;24.160;2022-11-15T06:47:56;100279.72;;;9.07;98.52
26531;BME280;14201;43.188;24.160;2022-11-15T06:50:21;100270.66;;;9.01;99.04
26531;BME280;14201;43.188;24.160;2022-11-15T06:52:47;100278.84;;;8.92;98.44
26531;BME280;14201;43.188;24.160;2022-11-15T06:55:12;100279.69;;;8.78;99.49
26531;BME280;14201;43.188;24.160;2022-11-15T06:57:49;100274.75;;;8.67;100.00
26531;BME280;14201;43.188;24.160;2022-11-15T07:00:17;100274.25;;;8.73;100.00
26531;BME280;14201;43.188;24.160;2022-11-15T07:02:44;100271.81;;;8.91;100.00
26531;BME280;14201;43.188;24.160;2022-11-15T07:05:10;100268.78;;;8.98;99.20
26531;BME280;14201;43.188;24.160;2022-11-15T07:07:36;100281.59;;;8.95;99.50
26531;BME280;14201;43.188;24.160;2022-11-15T07:10:02;100270.56;;;8.99;100.00
26531;BME280;14201;43.188;24.160;2022-11-15T07:12:27;100266.81;;;8.94;99.37
26531;BME280;14201;43.188;24.160;2022-11-15T07:14:53;100286.25;;;8.86;100.00
26531;BME280;14201;43.188;24.160;2022-11-15T07:17:18;100273.44;;;8.89;100.00
26531;BME280;14201;43.188;24.160;2022-11-15T07:19:44;100268.69;;;8.97;97.83
26531;BME280;14201;43.188;24.160;2022-11-15T07:22:10;100269.88;;;9.02;99.07
26531;BME280;14201;43.188;24.160;2022-11-15T07:24:35;100270.41;;;8.96;98.20
26531;BME280;14201;43.188;24.160;2022-11-15T07:27:01;100270.66;;;9.01;97.60
26531;BME280;14201;43.188;24.160;2022-11-15T07:29:26;100267.38;;;9.03;97.97
26531;BME280;14201;43.188;24.160;2022-11-15T07:31:52;100263.03;;;9.19;96.84
26531;BME280;14201;43.188;24.160;2022-11-15T07:34:18;100262.53;;;9.10;97.29
26531;BME280;14201;43.188;24.160;2022-11-15T07:36:43;100265.72;;;9.35;94.98
26531;BME280;14201;43.188;24.160;2022-11-15T07:39:09;100258.75;;;9.19;94.66
26531;BME280;14201;43.188;24.160;2022-11-15T07:41:35;100248.91;;;9.14;96.03
26531;BME280;14201;43.188;24.160;2022-11-15T07:44:01;100262.00;;;9.15;97.12
26531;BME280;14201;43.188;24.160;2022-11-15T07:46:27;100261.59;;;9.24;96.88
26531;BME280;14201;43.188;24.160;2022-11-15T07:48:52;100252.47;;;9.16;96.41
26531;BME280;14201;43.188;24.160;2022-11-15T07:51:18;100238.06;;;9.06;97.03
26531;BME280;14201;43.188;24.160;2022-11-15T07:53:44;100258.22;;;9.25;96.01
26531;BME280;14201;43.188;24.160;2022-11-15T07:56:10;100252.97;;;9.40;95.42
26531;BME280;14201;43.188;24.160;2022-11-15T07:58:36;100252.38;;;9.29;95.81
26531;BME280;14201;43.188;24.160;2022-11-15T08:01:06;100257.47;;;9.27;95.44
26531;BME280;14201;43.188;24.160;2022-11-15T08:03:32;100253.03;;;9.25;94.87
26531;BME280;14201;43.188;24.160;2022-11-15T08:05:58;100257.28;;;9.39;95.03
26531;BME280;14201;43.188;24.160;2022-11-15T08:08:24;100246.00;;;9.24;94.56
26531;BME280;14201;43.188;24.160;2022-11-15T08:10:49;100228.00;;;9.12;94.06
26531;BME280;14201;43.188;24.160;2022-11-15T08:13:15;100252.47;;;9.16;93.39
26531;BME280;14201;43.188;24.160;2022-11-15T08:15:41;100246.00;;;9.09;93.16
26531;BME280;14201;43.188;24.160;2022-11-15T08:18:15;100226.16;;;9.10;93.70
26531;BME280;14201;43.188;24.160;2022-11-15T08:20:42;100249.44;;;9.23;92.74
26531;BME280;14201;43.188;24.160;2022-11-15T08:23:10;100251.50;;;9.29;93.13
26531;BME280;14201;43.188;24.160;2022-11-15T08:25:37;100243.84;;;9.32;93.55
26531;BME280;14201;43.188;24.160;2022-11-15T08:28:04;100238.16;;;9.07;93.79
26531;BME280;14201;43.188;24.160;2022-11-15T08:30:35;100231.41;;;9.26;93.04
26531;BME280;14201;43.188;24.160;2022-11-15T08:33:02;100235.63;;;9.24;93.63
26531;BME280;14201;43.188;24.160;2022-11-15T08:35:28;100230.81;;;9.00;94.79
26531;BME280;14201;43.188;24.160;2022-11-15T08:37:54;100227.66;;;9.21;95.77
26531;BME280;14201;43.188;24.160;2022-11-15T08:40:20;100227.47;;;9.18;94.96
26531;BME280;14201;43.188;24.160;2022-11-15T08:42:47;100220.22;;;8.97;94.66
26531;BME280;14201;43.188;24.160;2022-11-15T08:45:13;100198.53;;;9.12;95.49
26531;BME280;14201;43.188;24.160;2022-11-15T08:47:38;100211.59;;;9.28;95.24
26531;BME280;14201;43.188;24.160;2022-11-15T08:50:04;100213.97;;;9.40;94.37
26531;BME280;14201;43.188;24.160;2022-11-15T08:52:30;100212.97;;;9.53;92.64
26531;BME280;14201;43.188;24.160;2022-11-15T08:54:57;100206.88;;;9.52;92.74
26531;BME280;14201;43.188;24.160;2022-11-15T08:57:22;100211.25;;;9.53;92.29
26531;BME280;14201;43.188;24.160;2022-11-15T08:59:48;100210.28;;;9.51;92.51
26531;BME280;14201;43.188;24.160;2022-11-15T09:02:15;100200.75;;;9.52;92.84
26531;BME280;14201;43.188;24.160;2022-11-15T09:04:42;100199.44;;;9.43;92.72
26531;BME280;14201;43.188;24.160;2022-11-15T09:07:11;100200.28;;;9.42;91.48
26531;BME280;14201;43.188;24.160;2022-11-15T09:09:37;100189.31;;;9.48;91.48
26531;BME280;14201;43.188;24.160;2022-11-15T09:12:05;100187.06;;;9.54;91.50
26531;BME280;14201;43.188;24.160;2022-11-15T09:14:31;100194.13;;;9.57;91.56
26531;BME280;14201;43.188;24.160;2022-11-15T09:16:57;100187.47;;;9.62;89.92
26531;BME280;14201;43.188;24.160;2022-11-15T09:19:23;100178.75;;;9.61;91.52
26531;BME280;14201;43.188;24.160;2022-11-15T09:21:49;100180.66;;;9.64;90.31
26531;BME280;14201;43.188;24.160;2022-11-15T09:24:15;100181.88;;;9.71;89.17
26531;BME280;14201;43.188;24.160;2022-11-15T09:26:41;100176.75;;;9.56;90.68
26531;BME280;14201;43.188;24.160;2022-11-15T09:29:06;100171.50;;;9.39;90.41
26531;BME280;14201;43.188;24.160;2022-11-15T09:31:32;100166.69;;;9.31;91.00
26531;BME280;14201;43.188;24.160;2022-11-15T09:33:58;100164.94;;;9.46;91.18
26531;BME280;14201;43.188;24.160;2022-11-15T09:36:24;100177.56;;;9.71;90.46
26531;BME280;14201;43.188;24.160;2022-11-15T09:38:50;100173.69;;;9.79;90.44
26531;BME280;14201;43.188;24.160;2022-11-15T09:41:31;100170.53;;;9.85;89.75
26531;BME280;14201;43.188;24.160;2022-11-15T09:49:01;100158.72;;;9.75;87.82
26531;BME280;14201;43.188;24.160;2022-11-15T09:51:40;100151.31;;;9.66;89.25
26531;BME280;14201;43.188;24.160;2022-11-15T09:54:43;100154.94;;;9.54;89.88
26531;BME280;14201;43.188;24.160;2022-11-15T10:00:07;100145.38;;;9.53;91.12
26531;BME280;14201;43.188;24.160;2022-11-15T10:02:52;100125.81;;;9.76;89.84
26531;BME280;14201;43.188;24.160;2022-11-15T10:05:23;100129.59;;;9.82;88.70
26531;BME280;14201;43.188;24.160;2022-11-15T10:10:37;100121.56;;;9.78;88.54
26531;BME280;14201;43.188;24.160;2022-11-15T10:13:04;100123.59;;;9.83;88.88
26531;BME280;14201;43.188;24.160;2022-11-15T10:15:29;100114.16;;;9.85;89.12
26531;BME280;14201;43.188;24.160;2022-11-15T10:18:06;100121.81;;;9.99;87.70
26531;BME280;14201;43.188;24.160;2022-11-15T10:20:49;100118.38;;;10.00;87.94
26531;BME280;14201;43.188;24.160;2022-11-15T10:23:18;100109.19;;;10.07;86.68
26531;BME280;14201;43.188;24.160;2022-11-15T10:25:45;100101.31;;;10.05;86.90
26531;BME280;14201;43.188;24.160;2022-11-15T10:30:44;100103.34;;;9.94;86.59
26531;BME280;14201;43.188;24.160;2022-11-15T10:33:25;100102.63;;;9.64;87.71
26531;BME280;14201;43.188;24.160;2022-11-15T10:46:33;100077.75;;;9.85;86.99
26531;BME280;14201;43.188;24.160;2022-11-15T10:49:26;100085.81;;;9.74;86.74
26531;BME280;14201;43.188;24.160;2022-11-15T10:56:56;100063.44;;;9.61;86.75
26531;BME280;14201;43.188;24.160;2022-11-15T10:59:30;100060.94;;;9.62;87.60
26531;BME280;14201;43.188;24.160;2022-11-15T11:01:57;100052.00;;;9.74;87.48
26531;BME280;14201;43.188;24.160;2022-11-15T11:04:23;100055.06;;;9.83;87.99
26531;BME280;14201;43.188;24.160;2022-11-15T11:06:51;100051.25;;;9.93;87.02
26531;BME280;14201;43.188;24.160;2022-11-15T11:09:37;100058.38;;;9.97;86.56
26531;BME280;14201;43.188;24.160;2022-11-15T11:12:05;100046.75;;;10.07;84.87
26531;BME280;14201;43.188;24.160;2022-11-15T11:14:36;100053.97;;;10.12;84.35
26531;BME280;14201;43.188;24.160;2022-11-15T11:17:21;100046.06;;;10.11;84.44
26531;BME280;14201;43.188;24.160;2022-11-15T11:25:24;100029.28;;;10.22;84.05
26531;BME280;14201;43.188;24.160;2022-11-15T11:30:45;100028.16;;;10.17;84.59
26531;BME280;14201;43.188;24.160;2022-11-15T11:33:21;100028.38;;;10.38;83.23
26531;BME280;14201;43.188;24.160;2022-11-15T11:36:17;100027.47;;;10.55;83.90
26531;BME280;14201;43.188;24.160;2022-11-15T11:39:29;100026.66;;;10.38;82.48
26531;BME280;14201;43.188;24.160;2022-11-15T11:42:30;100010.66;;;10.31;83.60
26531;BME280;14201;43.188;24.160;2022-11-15T11:47:43;100002.50;;;10.24;84.60
26531;BME280;14201;43.188;24.160;2022-11-15T11:50:14;100014.13;;;10.31;84.18
26531;BME280;14201;43.188;24.160;2022-11-15T11:58:19;99998.88;;;10.39;83.11
26531;BME280;14201;43.188;24.160;2022-11-15T12:00:51;99998.09;;;10.40;82.52
26531;BME280;14201;43.188;24.160;2022-11-15T12:06:32;99985.16;;;10.25;83.01
26531;BME280;14201;43.188;24.160;2022-11-15T12:09:23;99977.44;;;10.27;83.69
26531;BME280;14201;43.188;24.160;2022-11-15T12:12:29;99979.56;;;9.99;85.04
26531;BME280;14201;43.188;24.160;2022-11-15T12:17:35;99973.28;;;10.12;84.78
26531;BME280;14201;43.188;24.160;2022-11-15T12:20:17;99971.19;;;10.05;84.70
26531;BME280;14201;43.188;24.160;2022-11-15T12:23:13;99971.94;;;10.02;86.18
26531;BME280;14201;43.188;24.160;2022-11-15T12:25:51;99966.47;;;9.98;86.56
26531;BME280;14201;43.188;24.160;2022-11-15T12:28:48;99974.00;;;9.92;86.05
26531;BME280;14201;43.188;24.160;2022-11-15T12:33:47;99960.19;;;9.93;85.80
26531;BME280;14201;43.188;24.160;2022-11-15T12:39:06;99956.00;;;9.96;86.16
26531;BME280;14201;43.188;24.160;2022-11-15T12:41:36;99951.69;;;9.97;86.11
26531;BME280;14201;43.188;24.160;2022-11-15T12:44:03;99947.66;;;9.85;86.84
26531;BME280;14201;43.188;24.160;2022-11-15T12:59:53;99949.31;;;9.83;88.43
26531;BME280;14201;43.188;24.160;2022-11-15T13:02:44;99952.19;;;9.90;87.64
26531;BME280;14201;43.188;24.160;2022-11-15T13:17:54;99928.66;;;10.04;86.16
26531;BME280;14201;43.188;24.160;2022-11-15T13:20:28;99925.47;;;10.10;86.09
26531;BME280;14201;43.188;24.160;2022-11-15T13:23:14;99929.38;;;10.02;86.77
26531;BME280;14201;43.188;24.160;2022-11-15T13:25:55;99925.22;;;10.05;87.30
26531;BME280;14201;43.188;24.160;2022-11-15T13:31:34;99935.28;;;10.16;85.40
26531;BME280;14201;43.188;24.160;2022-11-15T13:34:13;99928.06;;;10.46;83.02
26531;BME280;14201;43.188;24.160;2022-11-15T13:36:40;99923.28;;;10.19;83.20
26531;BME280;14201;43.188;24.160;2022-11-15T13:39:23;99922.59;;;10.23;84.57
26531;BME280;14201;43.188;24.160;2022-11-15T13:41:51;99918.25;;;10.22;84.52
26531;BME280;14201;43.188;24.160;2022-11-15T13:44:22;99912.34;;;10.27;83.72
26531;BME280;14201;43.188;24.160;2022-11-15T13:46:49;99921.69;;;10.39;82.35
26531;BME280;14201;43.188;24.160;2022-11-15T13:49:30;99918.16;;;10.39;82.25
26531;BME280;14201;43.188;24.160;2022-11-15T13:51:57;99923.91;;;10.50;82.18
26531;BME280;14201;43.188;24.160;2022-11-15T13:54:45;99925.97;;;10.39;82.47
26531;BME280;14201;43.188;24.160;2022-11-15T13:57:17;99913.50;;;10.32;82.97
26531;BME280;14201;43.188;24.160;2022-11-15T13:59:52;99915.66;;;10.40;82.67
26531;BME280;14201;43.188;24.160;2022-11-15T14:02:26;99911.94;;;10.35;82.65
26531;BME280;14201;43.188;24.160;2022-11-15T14:04:57;99903.59;;;10.24;84.00
26531;BME280;14201;43.188;24.160;2022-11-15T14:07:25;99909.31;;;10.17;84.01
26531;BME280;14201;43.188;24.160;2022-11-15T14:09:52;99908.94;;;10.28;83.85
26531;BME280;14201;43.188;24.160;2022-11-15T14:12:33;99907.03;;;10.41;83.32
26531;BME280;14201;43.188;24.160;2022-11-15T14:15:46;99906.13;;;10.41;82.86
26531;BME280;14201;43.188;24.160;2022-11-15T14:17:47;99899.66;;;10.33;82.92
26531;BME280;14201;43.188;24.160;2022-11-15T14:22:53;99890.50;;;10.23;83.27
26531;BME280;14201;43.188;24.160;2022-11-15T14:25:26;99886.72;;;10.16;83.28
26531;BME280;14201;43.188;24.160;2022-11-15T14:30:50;99891.44;;;10.25;83.81
26531;BME280;14201;43.188;24.160;2022-11-15T14:33:34;99886.16;;;10.23;84.01
26531;BME280;14201;43.188;24.160;2022-11-15T14:36:05;99887.75;;;10.20;84.54
26531;BME280;14201;43.188;24.160;2022-11-15T14:38:32;99889.31;;;10.16;84.85
26531;BME280;14201;43.188;24.160;2022-11-15T14:40:58;99860.41;;;10.10;84.77
26531;BME280;14201;43.188;24.160;2022-11-15T14:43:24;99884.59;;;10.27;83.90
26531;BME280;14201;43.188;24.160;2022-11-15T14:45:49;99879.41;;;10.27;84.13
26531;BME280;14201;43.188;24.160;2022-11-15T14:48:15;99877.88;;;10.13;85.26
26531;BME280;14201;43.188;24.160;2022-11-15T14:50:41;99871.47;;;9.88;85.94
26531;BME280;14201;43.188;24.160;2022-11-15T14:53:10;99870.28;;;9.81;86.33
26531;BME280;14201;43.188;24.160;2022-11-15T14:55:36;99859.72;;;9.78;86.35
26531;BME280;14201;43.188;24.160;2022-11-15T14:58:03;99858.31;;;10.03;85.04
26531;BME280;14201;43.188;24.160;2022-11-15T15:00:32;99861.13;;;10.08;84.95
26531;BME280;14201;43.188;24.160;2022-11-15T15:02:58;99845.38;;;9.86;85.33
26531;BME280;14201;43.188;24.160;2022-11-15T15:07:55;99861.94;;;9.53;88.00
26531;BME280;14201;43.188;24.160;2022-11-15T15:10:22;99858.25;;;9.65;86.97